createdAt,value
2018-07-30T00:00:06.765Z,20.18
2018-07-30T00:01:06.729Z,20.14
2018-07-30T00:02:06.698Z,20.16
2018-07-30T00:03:06.673Z,20.14
2018-07-30T00:04:06.666Z,20.13
2018-07-30T00:05:06.609Z,20.08
2018-07-30T00:06:06.588Z,20.08
2018-07-30T00:07:06.554Z,20.02
2018-07-30T00:08:06.516Z,20.08
2018-07-30T00:09:06.495Z,20.10
2018-07-30T00:10:06.465Z,20.02
2018-07-30T00:11:06.425Z,20.03
2018-07-30T00:12:06.389Z,20.06
2018-07-30T00:13:06.369Z,19.99
2018-07-30T00:14:06.385Z,19.92
2018-07-30T00:15:06.295Z,19.83
2018-07-30T00:16:06.263Z,19.87
2018-07-30T00:17:06.241Z,19.83
2018-07-30T00:18:06.218Z,19.84
2018-07-30T00:19:06.188Z,19.66
2018-07-30T00:20:06.159Z,19.63
2018-07-30T00:21:06.140Z,19.69
2018-07-30T00:22:06.088Z,19.71
2018-07-30T00:23:06.046Z,19.71
2018-07-30T00:24:06.034Z,19.74
2018-07-30T00:25:05.986Z,19.58
2018-07-30T00:26:05.965Z,19.61
2018-07-30T00:27:05.932Z,19.69
2018-07-30T00:28:05.903Z,19.59
2018-07-30T00:29:05.863Z,19.68
2018-07-30T00:30:05.838Z,19.61
2018-07-30T00:31:05.802Z,19.63
2018-07-30T00:32:05.767Z,19.48
2018-07-30T00:33:05.753Z,19.51
2018-07-30T00:34:05.703Z,19.46
2018-07-30T00:35:05.682Z,19.51
2018-07-30T00:36:05.660Z,19.50
2018-07-30T00:37:05.621Z,19.56
2018-07-30T00:38:05.579Z,19.51
2018-07-30T00:39:05.545Z,19.55
2018-07-30T00:40:05.526Z,19.55
2018-07-30T00:41:05.490Z,19.48
2018-07-30T00:42:05.477Z,19.51
2018-07-30T00:43:05.431Z,19.47
2018-07-30T00:44:05.436Z,19.47
2018-07-30T00:45:05.381Z,19.43
2018-07-30T00:46:05.330Z,19.36
2018-07-30T00:47:05.350Z,19.44
2018-07-30T00:48:05.304Z,19.44
2018-07-30T00:49:05.245Z,19.47
2018-07-30T00:50:05.211Z,19.58
2018-07-30T00:51:05.175Z,19.73
2018-07-30T00:52:05.160Z,19.80
2018-07-30T00:53:05.131Z,19.73
2018-07-30T00:54:05.089Z,19.61
2018-07-30T00:55:05.054Z,19.62
2018-07-30T00:56:05.038Z,19.50
2018-07-30T00:57:04.996Z,19.48
2018-07-30T00:58:04.964Z,19.54
2018-07-30T00:59:04.943Z,19.41
2018-07-30T01:00:04.902Z,19.39
2018-07-30T01:01:04.907Z,19.40
2018-07-30T01:02:04.836Z,19.33
2018-07-30T01:03:04.804Z,19.39
2018-07-30T01:04:04.781Z,19.40
2018-07-30T01:05:04.746Z,19.32
2018-07-30T01:06:04.722Z,19.39
2018-07-30T01:07:04.697Z,19.26
2018-07-30T01:08:04.681Z,19.22
2018-07-30T01:09:04.628Z,19.31
2018-07-30T01:10:04.649Z,19.28
2018-07-30T01:11:04.546Z,19.19
2018-07-30T01:12:04.530Z,19.16
2018-07-30T01:13:04.497Z,19.16
2018-07-30T01:14:04.461Z,19.32
2018-07-30T01:15:04.423Z,19.26
2018-07-30T01:16:04.419Z,19.21
2018-07-30T01:17:04.370Z,19.29
2018-07-30T01:18:04.327Z,19.23
2018-07-30T01:19:04.313Z,19.26
2018-07-30T01:20:04.297Z,19.23
2018-07-30T01:21:04.247Z,19.25
2018-07-30T01:22:04.218Z,19.25
2018-07-30T01:23:10.985Z,19.31
2018-07-30T01:24:04.148Z,19.29
2018-07-30T01:25:04.112Z,19.32
2018-07-30T01:26:04.096Z,19.26
2018-07-30T01:27:04.051Z,19.21
2018-07-30T01:28:04.024Z,19.22
2018-07-30T01:29:03.988Z,19.22
2018-07-30T01:30:03.997Z,19.19
2018-07-30T01:31:03.939Z,19.14
2018-07-30T01:32:03.914Z,19.25
2018-07-30T01:33:03.871Z,19.22
2018-07-30T01:34:03.852Z,19.28
2018-07-30T01:35:03.808Z,19.14
2018-07-30T01:36:03.787Z,19.22
2018-07-30T01:37:03.730Z,19.16
2018-07-30T01:38:03.824Z,19.14
2018-07-30T01:39:03.683Z,19.16
2018-07-30T01:40:03.659Z,19.11
2018-07-30T01:41:03.659Z,19.00
2018-07-30T01:42:03.593Z,18.94
2018-07-30T01:43:03.591Z,18.92
2018-07-30T01:44:03.528Z,18.90
2018-07-30T01:45:03.490Z,18.81
2018-07-30T01:46:03.484Z,18.82
2018-07-30T01:47:03.502Z,18.75
2018-07-30T01:48:03.394Z,18.78
2018-07-30T01:49:03.390Z,18.76
2018-07-30T01:50:03.325Z,18.73
2018-07-30T01:51:03.317Z,18.63
2018-07-30T01:52:03.288Z,18.58
2018-07-30T01:53:03.254Z,18.63
2018-07-30T01:54:03.204Z,18.67
2018-07-30T01:55:03.162Z,18.62
2018-07-30T01:56:03.131Z,18.58
2018-07-30T01:57:03.162Z,18.66
2018-07-30T01:58:03.077Z,18.58
2018-07-30T01:59:03.076Z,18.58
2018-07-30T02:00:03.006Z,18.54
2018-07-30T02:01:02.997Z,18.45
2018-07-30T02:02:03.006Z,18.37
2018-07-30T02:03:02.909Z,18.50
2018-07-30T02:04:02.885Z,18.41
2018-07-30T02:05:02.865Z,18.39
2018-07-30T02:06:02.831Z,18.39
2018-07-30T02:07:02.796Z,18.41
2018-07-30T02:08:02.757Z,18.47
2018-07-30T02:09:02.731Z,18.39
2018-07-30T02:10:02.714Z,18.35
2018-07-30T02:11:02.656Z,18.33
2018-07-30T02:12:02.623Z,18.35
2018-07-30T02:13:02.647Z,18.36
2018-07-30T02:14:02.567Z,18.35
2018-07-30T02:15:02.535Z,18.32
2018-07-30T02:16:02.602Z,18.30
2018-07-30T02:17:02.497Z,18.23
2018-07-30T02:18:02.451Z,18.29
2018-07-30T02:19:02.416Z,18.27
2018-07-30T02:20:02.400Z,18.12
2018-07-30T02:21:02.340Z,18.07
2018-07-30T02:22:02.314Z,18.05
2018-07-30T02:23:02.281Z,18.03
2018-07-30T02:24:02.292Z,18.08
2018-07-30T02:25:02.244Z,18.08
2018-07-30T02:26:02.197Z,18.03
2018-07-30T02:27:02.163Z,17.97
2018-07-30T02:28:02.169Z,18.14
2018-07-30T02:29:02.089Z,18.15
2018-07-30T02:30:02.058Z,18.10
2018-07-30T02:31:02.071Z,18.07
2018-07-30T02:32:02.023Z,18.07
2018-07-30T02:33:01.955Z,18.05
2018-07-30T02:34:01.951Z,18.00
2018-07-30T02:35:01.913Z,17.99
2018-07-30T02:36:01.878Z,18.00
2018-07-30T02:37:01.851Z,17.97
2018-07-30T02:38:01.877Z,18.02
2018-07-30T02:39:01.775Z,18.10
2018-07-30T02:40:01.743Z,18.05
2018-07-30T02:41:01.720Z,18.07
2018-07-30T02:42:01.701Z,18.00
2018-07-30T02:43:01.651Z,17.95
2018-07-30T02:44:01.616Z,17.93
2018-07-30T02:45:01.596Z,17.84
2018-07-30T02:46:01.545Z,17.82
2018-07-30T02:47:01.573Z,17.89
2018-07-30T02:48:01.486Z,17.93
2018-07-30T02:49:01.461Z,17.82
2018-07-30T02:50:01.467Z,17.75
2018-07-30T02:51:01.381Z,17.79
2018-07-30T02:52:01.389Z,17.79
2018-07-30T02:53:01.318Z,17.89
2018-07-30T02:54:01.299Z,17.82
2018-07-30T02:55:01.270Z,17.79
2018-07-30T02:56:01.223Z,17.86
2018-07-30T02:57:01.187Z,17.79
2018-07-30T02:58:01.162Z,17.79
2018-07-30T02:59:01.153Z,17.74
2018-07-30T03:00:01.110Z,17.72
2018-07-30T03:01:01.094Z,17.71
2018-07-30T03:02:01.026Z,17.74
2018-07-30T03:03:00.994Z,17.59
2018-07-30T03:04:00.973Z,17.63
2018-07-30T03:05:00.928Z,17.59
2018-07-30T03:06:00.893Z,17.74
2018-07-30T03:07:00.866Z,17.72
2018-07-30T03:08:00.840Z,17.79
2018-07-30T03:09:00.799Z,17.77
2018-07-30T03:10:00.759Z,17.75
2018-07-30T03:11:00.754Z,17.71
2018-07-30T03:12:00.704Z,17.72
2018-07-30T03:13:00.664Z,17.71
2018-07-30T03:14:00.633Z,17.77
2018-07-30T03:15:00.610Z,17.74
2018-07-30T03:16:00.569Z,17.72
2018-07-30T03:17:00.537Z,17.78
2018-07-30T03:18:00.527Z,17.66
2018-07-30T03:19:00.494Z,17.72
2018-07-30T03:20:00.443Z,17.72
2018-07-30T03:21:00.406Z,17.75
2018-07-30T03:22:00.418Z,17.68
2018-07-30T03:23:00.350Z,17.75
2018-07-30T03:24:00.308Z,17.81
2018-07-30T03:25:00.314Z,17.62
2018-07-30T03:26:00.260Z,17.70
2018-07-30T03:27:00.234Z,17.58
2018-07-30T03:28:00.190Z,17.58
2018-07-30T03:29:00.148Z,17.55
2018-07-30T03:30:00.114Z,17.54
2018-07-30T03:31:00.099Z,17.49
2018-07-30T03:32:00.065Z,17.36
2018-07-30T03:33:00.053Z,17.36
2018-07-30T03:33:59.992Z,17.34
2018-07-30T03:34:59.948Z,17.36
2018-07-30T03:35:59.935Z,17.36
2018-07-30T03:36:59.899Z,17.31
2018-07-30T03:38:00.560Z,17.38
2018-07-30T03:39:00.560Z,17.33
2018-07-30T03:40:00.532Z,17.26
2018-07-30T03:41:00.536Z,17.30
2018-07-30T03:41:59.747Z,17.18
2018-07-30T03:42:59.689Z,17.23
2018-07-30T03:43:59.679Z,17.16
2018-07-30T03:44:59.652Z,17.19
2018-07-30T03:45:59.608Z,17.23
2018-07-30T03:46:59.558Z,17.21
2018-07-30T03:47:59.536Z,17.22
2018-07-30T03:48:59.500Z,17.15
2018-07-30T03:49:59.482Z,17.01
2018-07-30T03:50:59.447Z,17.07
2018-07-30T03:51:59.433Z,17.03
2018-07-30T03:52:59.372Z,17.06
2018-07-30T03:53:59.346Z,17.14
2018-07-30T03:54:59.310Z,17.00
2018-07-30T03:55:59.273Z,16.94
2018-07-30T03:56:59.233Z,16.88
2018-07-30T03:57:59.269Z,16.85
2018-07-30T03:58:59.171Z,16.83
2018-07-30T03:59:59.159Z,16.83
2018-07-30T04:00:59.123Z,16.83
2018-07-30T04:01:59.106Z,16.86
2018-07-30T04:02:59.047Z,16.79
2018-07-30T04:03:59.003Z,16.81
2018-07-30T04:04:58.976Z,16.79
2018-07-30T04:05:58.960Z,16.86
2018-07-30T04:06:58.916Z,16.82
2018-07-30T04:07:58.940Z,16.86
2018-07-30T04:08:58.875Z,16.83
2018-07-30T04:09:58.802Z,16.86
2018-07-30T04:10:58.772Z,16.89
2018-07-30T04:11:58.753Z,16.89
2018-07-30T04:12:58.728Z,16.91
2018-07-30T04:13:58.767Z,16.88
2018-07-30T04:14:58.652Z,16.83
2018-07-30T04:15:58.702Z,16.98
2018-07-30T04:16:58.574Z,16.96
2018-07-30T04:17:58.541Z,16.98
2018-07-30T04:18:58.522Z,16.98
2018-07-30T04:19:58.490Z,16.96
2018-07-30T04:20:58.446Z,16.98
2018-07-30T04:21:58.423Z,16.88
2018-07-30T04:22:58.386Z,16.85
2018-07-30T04:23:58.341Z,16.94
2018-07-30T04:24:58.325Z,17.06
2018-07-30T04:25:58.275Z,17.06
2018-07-30T04:26:58.242Z,17.04
2018-07-30T04:27:58.217Z,17.12
2018-07-30T04:28:58.180Z,17.21
2018-07-30T04:29:58.148Z,17.18
2018-07-30T04:30:58.117Z,17.23
2018-07-30T04:31:58.122Z,17.31
2018-07-30T04:32:58.049Z,17.34
2018-07-30T04:33:58.041Z,17.28
2018-07-30T04:34:58.027Z,17.38
2018-07-30T04:35:57.960Z,17.38
2018-07-30T04:36:57.925Z,17.34
2018-07-30T04:37:57.897Z,17.46
2018-07-30T04:38:57.853Z,17.58
2018-07-30T04:39:57.818Z,17.58
2018-07-30T04:40:57.803Z,17.56
2018-07-30T04:41:57.783Z,17.62
2018-07-30T04:42:57.719Z,17.54
2018-07-30T04:43:57.696Z,17.54
2018-07-30T04:44:57.679Z,17.59
2018-07-30T04:45:57.641Z,17.62
2018-07-30T04:46:57.645Z,17.59
2018-07-30T04:47:57.564Z,17.66
2018-07-30T04:48:57.543Z,17.63
2018-07-30T04:49:57.495Z,17.62
2018-07-30T04:50:57.530Z,17.63
2018-07-30T04:51:57.441Z,17.77
2018-07-30T04:52:57.401Z,17.75
2018-07-30T04:53:57.365Z,17.68
2018-07-30T04:54:57.332Z,17.72
2018-07-30T04:55:57.306Z,17.77
2018-07-30T04:56:57.285Z,17.86
2018-07-30T04:57:57.253Z,17.90
2018-07-30T04:58:57.202Z,17.84
2018-07-30T04:59:57.178Z,17.87
2018-07-30T05:00:57.134Z,17.92
2018-07-30T05:01:57.126Z,17.97
2018-07-30T05:02:57.074Z,18.02
2018-07-30T05:03:57.109Z,17.99
2018-07-30T05:04:57.009Z,18.08
2018-07-30T05:05:57.000Z,18.14
2018-07-30T05:06:56.972Z,18.17
2018-07-30T05:07:56.946Z,18.26
2018-07-30T05:08:56.894Z,18.33
2018-07-30T05:09:56.853Z,18.33
2018-07-30T05:10:56.818Z,18.45
2018-07-30T05:11:56.808Z,18.58
2018-07-30T05:12:56.773Z,19.11
2018-07-30T05:13:56.727Z,19.65
2018-07-30T05:14:56.682Z,20.02
2018-07-30T05:15:56.682Z,20.43
2018-07-30T05:16:56.628Z,21.03
2018-07-30T05:17:56.602Z,21.68
2018-07-30T05:18:56.584Z,22.35
2018-07-30T05:19:56.531Z,22.83
2018-07-30T05:20:56.503Z,23.50
2018-07-30T05:21:56.477Z,24.03
2018-07-30T05:22:56.436Z,24.31
2018-07-30T05:23:56.432Z,24.60
2018-07-30T05:24:56.377Z,24.93
2018-07-30T05:25:56.370Z,25.08
2018-07-30T05:26:56.373Z,25.23
2018-07-30T05:27:56.301Z,25.28
2018-07-30T05:28:56.270Z,25.15
2018-07-30T05:29:56.272Z,24.98
2018-07-30T05:30:56.202Z,24.60
2018-07-30T05:31:56.186Z,24.28
2018-07-30T05:32:56.158Z,23.78
2018-07-30T05:33:56.126Z,23.57
2018-07-30T05:34:56.087Z,23.22
2018-07-30T05:35:56.051Z,23.10
2018-07-30T05:36:56.052Z,22.90
2018-07-30T05:37:56.029Z,22.72
2018-07-30T05:38:55.975Z,22.40
2018-07-30T05:39:55.954Z,22.39
2018-07-30T05:40:55.933Z,22.30
2018-07-30T05:41:55.947Z,22.07
2018-07-30T05:42:55.873Z,21.92
2018-07-30T05:43:55.828Z,21.80
2018-07-30T05:44:55.825Z,21.67
2018-07-30T05:45:55.807Z,21.64
2018-07-30T05:46:55.833Z,21.52
2018-07-30T05:47:55.705Z,21.58
2018-07-30T05:48:55.682Z,21.44
2018-07-30T05:49:55.694Z,21.42
2018-07-30T05:50:55.625Z,21.29
2018-07-30T05:51:55.647Z,21.38
2018-07-30T05:52:55.602Z,21.24
2018-07-30T05:53:55.542Z,21.27
2018-07-30T05:54:55.547Z,21.25
2018-07-30T05:55:55.484Z,21.34
2018-07-30T05:56:55.467Z,21.32
2018-07-30T05:57:55.434Z,21.47
2018-07-30T05:58:55.413Z,21.32
2018-07-30T05:59:55.380Z,21.37
2018-07-30T06:00:55.412Z,21.50
2018-07-30T06:01:55.338Z,21.40
2018-07-30T06:02:55.274Z,21.49
2018-07-30T06:03:55.313Z,21.47
2018-07-30T06:04:55.231Z,21.58
2018-07-30T06:05:55.199Z,21.67
2018-07-30T06:06:55.219Z,21.69
2018-07-30T06:07:55.139Z,21.80
2018-07-30T06:08:55.128Z,21.86
2018-07-30T06:09:55.103Z,21.92
2018-07-30T06:10:55.069Z,21.92
2018-07-30T06:11:55.048Z,21.99
2018-07-30T06:12:55.003Z,22.10
2018-07-30T06:13:54.978Z,22.17
2018-07-30T06:14:54.942Z,22.18
2018-07-30T06:15:54.916Z,22.28
2018-07-30T06:16:54.878Z,22.35
2018-07-30T06:17:54.852Z,22.42
2018-07-30T06:18:54.811Z,22.55
2018-07-30T06:19:54.779Z,22.75
2018-07-30T06:20:54.861Z,22.85
2018-07-30T06:21:54.731Z,23.07
2018-07-30T06:22:54.708Z,23.22
2018-07-30T06:23:54.685Z,23.35
2018-07-30T06:24:54.647Z,23.33
2018-07-30T06:25:54.637Z,23.32
2018-07-30T06:26:54.704Z,23.42
2018-07-30T06:27:54.604Z,23.42
2018-07-30T06:28:54.514Z,23.42
2018-07-30T06:29:54.493Z,23.42
2018-07-30T06:30:54.460Z,23.47
2018-07-30T06:31:54.451Z,23.51
2018-07-30T06:32:54.429Z,23.48
2018-07-30T06:33:54.383Z,23.50
2018-07-30T06:34:54.347Z,23.58
2018-07-30T06:35:54.342Z,23.65
2018-07-30T06:36:54.303Z,23.72
2018-07-30T06:37:54.281Z,23.78
2018-07-30T06:38:54.222Z,23.93
2018-07-30T06:39:54.198Z,23.91
2018-07-30T06:40:54.168Z,23.91
2018-07-30T06:41:54.136Z,24.02
2018-07-30T06:42:54.119Z,24.20
2018-07-30T06:43:54.097Z,24.18
2018-07-30T06:44:54.069Z,24.39
2018-07-30T06:45:54.028Z,24.40
2018-07-30T06:46:54.025Z,24.52
2018-07-30T06:47:54.003Z,24.52
2018-07-30T06:48:53.982Z,24.57
2018-07-30T06:49:53.913Z,24.64
2018-07-30T06:50:53.899Z,24.69
2018-07-30T06:51:53.880Z,24.71
2018-07-30T06:52:53.837Z,24.91
2018-07-30T06:53:53.798Z,25.02
2018-07-30T06:54:53.782Z,25.15
2018-07-30T06:55:53.748Z,25.28
2018-07-30T06:56:53.731Z,25.62
2018-07-30T06:57:53.712Z,25.99
2018-07-30T06:58:53.690Z,26.69
2018-07-30T06:59:53.637Z,27.75
2018-07-30T07:00:53.604Z,28.88
2018-07-30T07:01:53.587Z,29.95
2018-07-30T07:02:53.546Z,30.92
2018-07-30T07:03:53.526Z,31.48
2018-07-30T07:04:53.560Z,31.68
2018-07-30T07:05:53.476Z,31.84
2018-07-30T07:06:53.472Z,32.40
2018-07-30T07:07:53.422Z,32.84
2018-07-30T07:08:53.415Z,33.51
2018-07-30T07:09:53.370Z,33.91
2018-07-30T07:10:53.406Z,34.47
2018-07-30T07:11:53.382Z,34.99
2018-07-30T07:12:53.312Z,35.21
2018-07-30T07:13:53.297Z,35.37
2018-07-30T07:14:53.339Z,35.45
2018-07-30T07:15:53.266Z,34.92
2018-07-30T07:16:53.232Z,34.56
2018-07-30T07:17:53.212Z,34.46
2018-07-30T07:18:53.173Z,34.08
2018-07-30T07:19:53.226Z,34.05
2018-07-30T07:20:53.176Z,34.08
2018-07-30T07:21:53.217Z,33.60
2018-07-30T07:22:53.082Z,33.91
2018-07-30T07:23:53.094Z,33.90
2018-07-30T07:24:53.087Z,33.94
2018-07-30T07:25:53.051Z,34.05
2018-07-30T07:26:53.135Z,34.46
2018-07-30T07:27:52.993Z,34.94
2018-07-30T07:28:52.973Z,35.11
2018-07-30T07:29:52.963Z,35.29
2018-07-30T07:30:52.962Z,35.33
2018-07-30T07:31:52.985Z,35.15
2018-07-30T07:32:52.905Z,34.85
2018-07-30T07:33:52.904Z,35.28
2018-07-30T07:34:52.895Z,35.96
2018-07-30T07:35:52.877Z,35.63
2018-07-30T07:36:52.838Z,35.62
2018-07-30T07:37:52.847Z,35.40
2018-07-30T07:38:52.824Z,35.41
2018-07-30T07:39:52.811Z,35.94
2018-07-30T07:40:52.790Z,36.03
2018-07-30T07:41:52.746Z,35.99
2018-07-30T07:42:52.747Z,35.96
2018-07-30T07:43:52.718Z,36.34
2018-07-30T07:44:52.749Z,36.37
2018-07-30T07:45:52.745Z,35.66
2018-07-30T07:46:52.695Z,35.77
2018-07-30T07:47:52.655Z,36.15
2018-07-30T07:48:52.675Z,36.72
2018-07-30T07:49:52.648Z,37.39
2018-07-30T07:50:52.852Z,38.04
2018-07-30T07:51:52.641Z,38.47
2018-07-30T07:52:52.565Z,38.66
2018-07-30T07:53:52.603Z,38.74
2018-07-30T07:54:52.609Z,38.23
2018-07-30T07:55:52.619Z,37.74
2018-07-30T07:56:52.541Z,36.72
2018-07-30T07:57:52.515Z,35.81
2018-07-30T07:58:52.524Z,35.68
2018-07-30T07:59:52.489Z,35.00
2018-07-30T08:00:52.452Z,35.07
2018-07-30T08:01:52.452Z,35.23
2018-07-30T08:02:52.429Z,35.41
2018-07-30T08:03:52.470Z,36.09
2018-07-30T08:04:52.414Z,36.57
2018-07-30T08:05:52.391Z,37.03
2018-07-30T08:06:52.447Z,36.98
2018-07-30T08:07:52.407Z,36.98
2018-07-30T08:08:52.376Z,37.50
2018-07-30T08:09:52.415Z,38.30
2018-07-30T08:10:52.408Z,38.34
2018-07-30T08:11:52.344Z,37.86
2018-07-30T08:12:52.314Z,37.85
2018-07-30T08:13:52.264Z,36.95
2018-07-30T08:14:52.259Z,35.97
2018-07-30T08:15:52.243Z,35.93
2018-07-30T08:16:52.295Z,36.05
2018-07-30T08:17:52.222Z,35.93
2018-07-30T08:18:52.196Z,35.68
2018-07-30T08:19:52.197Z,35.40
2018-07-30T08:20:52.176Z,35.44
2018-07-30T08:21:52.151Z,36.22
2018-07-30T08:22:52.169Z,36.46
2018-07-30T08:23:52.136Z,36.27
2018-07-30T08:24:52.118Z,36.65
2018-07-30T08:25:52.117Z,36.98
2018-07-30T08:26:52.089Z,36.81
2018-07-30T08:27:52.069Z,36.54
2018-07-30T08:28:52.061Z,36.93
2018-07-30T08:29:52.043Z,37.56
2018-07-30T08:30:52.041Z,38.00
2018-07-30T08:31:52.059Z,38.28
2018-07-30T08:32:52.036Z,38.31
2018-07-30T08:33:52.003Z,38.61
2018-07-30T08:34:51.972Z,37.79
2018-07-30T08:35:51.972Z,37.07
2018-07-30T08:36:52.009Z,37.03
2018-07-30T08:37:51.941Z,37.12
2018-07-30T08:38:51.987Z,36.75
2018-07-30T08:39:51.935Z,36.95
2018-07-30T08:40:51.917Z,37.28
2018-07-30T08:41:51.889Z,37.67
2018-07-30T08:42:51.892Z,37.94
2018-07-30T08:43:51.853Z,38.09
2018-07-30T08:44:51.911Z,38.12
2018-07-30T08:45:51.871Z,37.76
2018-07-30T08:46:51.843Z,37.66
2018-07-30T08:47:51.807Z,37.82
2018-07-30T08:48:51.816Z,38.30
2018-07-30T08:49:51.795Z,38.16
2018-07-30T08:50:51.804Z,38.31
2018-07-30T08:51:51.763Z,37.82
2018-07-30T08:52:51.759Z,37.00
2018-07-30T08:53:51.753Z,36.99
2018-07-30T08:54:51.732Z,36.51
2018-07-30T08:55:51.715Z,36.41
2018-07-30T08:56:51.700Z,35.97
2018-07-30T08:57:51.691Z,36.15
2018-07-30T08:58:51.675Z,36.27
2018-07-30T08:59:51.641Z,36.69
2018-07-30T09:00:51.631Z,37.09
2018-07-30T09:01:51.607Z,37.21
2018-07-30T09:02:51.593Z,36.84
2018-07-30T09:03:51.569Z,37.32
2018-07-30T09:04:51.563Z,36.47
2018-07-30T09:05:51.543Z,35.47
2018-07-30T09:06:51.570Z,34.97
2018-07-30T09:07:51.524Z,35.82
2018-07-30T09:08:51.527Z,36.56
2018-07-30T09:09:51.488Z,37.37
2018-07-30T09:10:51.488Z,36.98
2018-07-30T09:11:51.476Z,36.03
2018-07-30T09:12:51.603Z,35.06
2018-07-30T09:13:51.440Z,34.50
2018-07-30T09:14:51.412Z,35.09
2018-07-30T09:15:51.401Z,35.36
2018-07-30T09:16:51.404Z,35.78
2018-07-30T09:17:51.384Z,35.81
2018-07-30T09:18:51.366Z,34.87
2018-07-30T09:19:51.350Z,34.42
2018-07-30T09:20:51.351Z,34.82
2018-07-30T09:21:51.314Z,34.24
2018-07-30T09:22:51.311Z,34.06
2018-07-30T09:23:51.320Z,34.00
2018-07-30T09:24:51.276Z,34.02
2018-07-30T09:25:51.263Z,35.09
2018-07-30T09:26:51.298Z,36.01
2018-07-30T09:27:51.230Z,36.93
2018-07-30T09:28:51.209Z,37.10
2018-07-30T09:29:51.194Z,37.39
2018-07-30T09:30:51.191Z,37.22
2018-07-30T09:31:51.181Z,37.10
2018-07-30T09:32:51.231Z,37.34
2018-07-30T09:33:51.135Z,37.94
2018-07-30T09:34:51.128Z,38.41
2018-07-30T09:35:51.117Z,38.20
2018-07-30T09:36:51.190Z,37.89
2018-07-30T09:37:51.064Z,37.59
2018-07-30T09:38:51.225Z,37.55
2018-07-30T09:39:51.056Z,37.84
2018-07-30T09:40:51.023Z,37.44
2018-07-30T09:41:51.009Z,36.91
2018-07-30T09:42:51.006Z,36.32
2018-07-30T09:43:50.990Z,36.81
2018-07-30T09:44:51.008Z,36.80
2018-07-30T09:45:51.020Z,37.10
2018-07-30T09:46:50.947Z,36.56
2018-07-30T09:47:50.938Z,35.63
2018-07-30T09:48:50.917Z,34.81
2018-07-30T09:49:50.893Z,35.23
2018-07-30T09:50:50.902Z,34.92
2018-07-30T09:51:50.886Z,34.08
2018-07-30T09:52:50.872Z,33.60
2018-07-30T09:53:50.850Z,33.18
2018-07-30T09:54:50.849Z,33.00
2018-07-30T09:55:50.820Z,32.96
2018-07-30T09:56:50.934Z,32.82
2018-07-30T09:57:50.774Z,32.60
2018-07-30T09:58:50.769Z,33.44
2018-07-30T09:59:50.779Z,33.76
2018-07-30T10:00:50.737Z,33.44
2018-07-30T10:01:50.717Z,33.41
2018-07-30T10:02:50.724Z,33.18
2018-07-30T10:03:50.703Z,32.99
2018-07-30T10:04:50.675Z,32.74
2018-07-30T10:05:50.639Z,32.63
2018-07-30T10:06:50.666Z,32.52
2018-07-30T10:07:50.611Z,32.81
2018-07-30T10:08:50.588Z,32.92
2018-07-30T10:09:50.585Z,32.74
2018-07-30T10:10:50.591Z,32.74
2018-07-30T10:11:50.539Z,32.70
2018-07-30T10:12:50.524Z,32.47
2018-07-30T10:13:50.507Z,32.25
2018-07-30T10:14:50.485Z,32.33
2018-07-30T10:15:50.474Z,32.41
2018-07-30T10:16:50.458Z,32.35
2018-07-30T10:17:50.520Z,32.35
2018-07-30T10:18:50.473Z,32.44
2018-07-30T10:19:50.425Z,32.40
2018-07-30T10:20:50.419Z,32.26
2018-07-30T10:21:50.356Z,32.03
2018-07-30T10:22:50.359Z,31.84
2018-07-30T10:23:50.327Z,31.85
2018-07-30T10:24:50.325Z,32.30
2018-07-30T10:25:50.290Z,33.60
2018-07-30T10:26:50.275Z,34.78
2018-07-30T10:27:50.264Z,35.80
2018-07-30T10:28:50.294Z,36.62
2018-07-30T10:29:50.219Z,37.09
2018-07-30T10:30:50.265Z,36.69
2018-07-30T10:31:50.162Z,36.07
2018-07-30T10:32:50.153Z,35.68
2018-07-30T10:33:50.150Z,36.49
2018-07-30T10:34:50.119Z,37.37
2018-07-30T10:35:50.096Z,38.06
2018-07-30T10:36:50.076Z,38.59
2018-07-30T10:37:50.061Z,38.44
2018-07-30T10:38:50.035Z,38.66
2018-07-30T10:39:50.049Z,37.72
2018-07-30T10:40:49.997Z,36.68
2018-07-30T10:41:49.987Z,36.03
2018-07-30T10:42:49.953Z,35.81
2018-07-30T10:43:49.939Z,35.99
2018-07-30T10:44:49.916Z,36.41
2018-07-30T10:45:49.907Z,36.12
2018-07-30T10:46:49.884Z,36.88
2018-07-30T10:47:49.908Z,37.09
2018-07-30T10:48:49.851Z,37.84
2018-07-30T10:49:49.825Z,38.59
2018-07-30T10:50:49.831Z,38.50
2018-07-30T10:51:49.793Z,38.11
2018-07-30T10:52:49.780Z,38.50
2018-07-30T10:53:49.792Z,38.32
2018-07-30T10:54:49.769Z,38.47
2018-07-30T10:55:49.724Z,38.98
2018-07-30T10:56:49.718Z,39.09
2018-07-30T10:57:49.711Z,39.16
2018-07-30T10:58:49.657Z,38.75
2018-07-30T10:59:49.655Z,38.50
2018-07-30T11:00:49.645Z,36.71
2018-07-30T11:01:49.626Z,36.81
2018-07-30T11:02:49.604Z,37.03
2018-07-30T11:03:49.588Z,37.36
2018-07-30T11:04:49.588Z,37.72
2018-07-30T11:05:49.569Z,38.15
2018-07-30T11:06:49.536Z,38.44
2018-07-30T11:07:49.563Z,38.22
2018-07-30T11:08:49.527Z,37.07
2018-07-30T11:09:49.493Z,36.39
2018-07-30T11:10:49.477Z,35.74
2018-07-30T11:11:49.489Z,34.96
2018-07-30T11:12:49.441Z,35.23
2018-07-30T11:13:49.421Z,35.33
2018-07-30T11:14:49.530Z,35.41
2018-07-30T11:15:49.401Z,36.01
2018-07-30T11:16:49.378Z,36.60
2018-07-30T11:17:49.353Z,36.94
2018-07-30T11:18:49.397Z,36.20
2018-07-30T11:19:49.331Z,35.59
2018-07-30T11:20:49.366Z,34.94
2018-07-30T11:21:49.290Z,34.53
2018-07-30T11:22:49.296Z,34.24
2018-07-30T11:23:49.262Z,33.93
2018-07-30T11:24:49.239Z,33.69
2018-07-30T11:25:49.217Z,34.06
2018-07-30T11:26:49.217Z,34.92
2018-07-30T11:27:49.299Z,35.22
2018-07-30T11:28:49.165Z,35.71
2018-07-30T11:29:49.165Z,35.48
2018-07-30T11:30:49.137Z,34.89
2018-07-30T11:31:49.125Z,34.54
2018-07-30T11:32:49.142Z,34.37
2018-07-30T11:33:49.087Z,34.19
2018-07-30T11:34:49.132Z,34.22
2018-07-30T11:35:49.042Z,34.06
2018-07-30T11:36:49.032Z,33.93
2018-07-30T11:37:49.009Z,33.93
2018-07-30T11:38:48.994Z,33.93
2018-07-30T11:39:49.002Z,33.90
2018-07-30T11:40:48.959Z,33.95
2018-07-30T11:41:48.957Z,34.03
2018-07-30T11:42:48.986Z,34.12
2018-07-30T11:43:48.905Z,34.02
2018-07-30T11:44:48.911Z,34.03
2018-07-30T11:45:48.880Z,33.79
2018-07-30T11:46:48.859Z,33.60
2018-07-30T11:47:48.884Z,33.44
2018-07-30T11:48:48.946Z,33.42
2018-07-30T11:49:48.828Z,33.41
2018-07-30T11:50:48.806Z,33.41
2018-07-30T11:51:48.803Z,33.44
2018-07-30T11:52:48.778Z,33.54
2018-07-30T11:53:48.716Z,33.73
2018-07-30T11:54:48.703Z,33.68
2018-07-30T11:55:48.690Z,33.76
2018-07-30T11:56:48.665Z,33.69
2018-07-30T11:57:48.701Z,33.69
2018-07-30T11:58:48.685Z,33.57
2018-07-30T11:59:48.607Z,33.57
2018-07-30T12:00:48.592Z,33.53
2018-07-30T12:01:48.634Z,33.61
2018-07-30T12:02:48.549Z,33.75
2018-07-30T12:03:48.533Z,33.81
2018-07-30T12:04:48.550Z,34.13
2018-07-30T12:05:48.488Z,34.13
2018-07-30T12:06:48.478Z,34.28
2018-07-30T12:07:48.453Z,34.49
2018-07-30T12:08:48.447Z,35.06
2018-07-30T12:09:48.456Z,35.77
2018-07-30T12:10:48.395Z,36.16
2018-07-30T12:11:48.386Z,36.32
2018-07-30T12:12:48.356Z,36.53
2018-07-30T12:13:48.348Z,36.09
2018-07-30T12:14:48.317Z,35.62
2018-07-30T12:15:48.322Z,35.43
2018-07-30T12:16:48.287Z,35.06
2018-07-30T12:17:48.285Z,34.97
2018-07-30T12:18:48.255Z,34.96
2018-07-30T12:19:48.239Z,34.65
2018-07-30T12:20:48.243Z,34.27
2018-07-30T12:21:48.221Z,34.09
2018-07-30T12:22:48.181Z,33.82
2018-07-30T12:23:48.190Z,33.72
2018-07-30T12:24:48.124Z,33.75
2018-07-30T12:25:48.104Z,33.78
2018-07-30T12:26:48.159Z,33.54
2018-07-30T12:27:48.095Z,33.56
2018-07-30T12:28:48.048Z,33.61
2018-07-30T12:29:48.035Z,33.57
2018-07-30T12:30:48.032Z,33.59
2018-07-30T12:31:47.999Z,33.49
2018-07-30T12:32:47.982Z,33.78
2018-07-30T12:33:48.006Z,34.34
2018-07-30T12:34:47.932Z,34.37
2018-07-30T12:35:47.920Z,34.73
2018-07-30T12:36:47.962Z,35.60
2018-07-30T12:37:47.887Z,36.19
2018-07-30T12:38:47.914Z,36.66
2018-07-30T12:39:47.879Z,36.53
2018-07-30T12:40:47.827Z,36.59
2018-07-30T12:41:47.820Z,36.98
2018-07-30T12:42:47.788Z,36.98
2018-07-30T12:43:47.781Z,37.24
2018-07-30T12:44:47.785Z,37.22
2018-07-30T12:45:47.732Z,37.25
2018-07-30T12:46:47.718Z,36.94
2018-07-30T12:47:47.701Z,37.20
2018-07-30T12:48:47.676Z,37.81
2018-07-30T12:49:47.647Z,37.88
2018-07-30T12:50:47.639Z,38.06
2018-07-30T12:51:47.648Z,38.37